sensor_id;sensor_type;location;lat;lon;timestamp;temperature;humidity
25937;DHT22;13733;51.178;4.450;2023-04-19T00:01:48;10.70;99.90
25937;DHT22;13733;51.178;4.450;2023-04-19T00:04:14;10.70;99.90
25937;DHT22;13733;51.178;4.450;2023-04-19T00:06:40;10.70;99.90
25937;DHT22;13733;51.178;4.450;2023-04-19T00:09:07;10.60;99.90
25937;DHT22;13733;51.178;4.450;2023-04-19T00:11:33;10.60;99.90
25937;DHT22;13733;51.178;4.450;2023-04-19T00:13:59;10.50;99.90
25937;DHT22;13733;51.178;4.450;2023-04-19T00:16:24;10.50;99.90
25937;DHT22;13733;51.178;4.450;2023-04-19T00:18:50;10.50;99.90
25937;DHT22;13733;51.178;4.450;2023-04-19T00:21:16;10.50;99.90
25937;DHT22;13733;51.178;4.450;2023-04-19T00:23:42;10.40;99.90
25937;DHT22;13733;51.178;4.450;2023-04-19T00:26:08;10.40;99.90
25937;DHT22;13733;51.178;4.450;2023-04-19T00:28:36;10.30;99.90
25937;DHT22;13733;51.178;4.450;2023-04-19T00:31:02;10.30;99.90
25937;DHT22;13733;51.178;4.450;2023-04-19T00:33:27;10.30;99.90
25937;DHT22;13733;51.178;4.450;2023-04-19T00:35:56;10.30;99.90
25937;DHT22;13733;51.178;4.450;2023-04-19T00:38:21;10.30;99.90
25937;DHT22;13733;51.178;4.450;2023-04-19T00:40:47;10.20;99.90
25937;DHT22;13733;51.178;4.450;2023-04-19T00:43:19;10.10;99.90
25937;DHT22;13733;51.178;4.450;2023-04-19T00:45:47;10.20;99.90
25937;DHT22;13733;51.178;4.450;2023-04-19T00:48:13;10.10;99.90
25937;DHT22;13733;51.178;4.450;2023-04-19T00:50:41;10.10;99.90
25937;DHT22;13733;51.178;4.450;2023-04-19T00:53:07;10.00;99.90
25937;DHT22;13733;51.178;4.450;2023-04-19T00:55:33;10.10;99.90
25937;DHT22;13733;51.178;4.450;2023-04-19T00:57:59;10.10;99.90
25937;DHT22;13733;51.178;4.450;2023-04-19T01:00:25;10.00;99.90
25937;DHT22;13733;51.178;4.450;2023-04-19T01:02:51;10.00;99.90
25937;DHT22;13733;51.178;4.450;2023-04-19T01:05:18;10.00;99.90
25937;DHT22;13733;51.178;4.450;2023-04-19T01:07:44;9.90;99.90
25937;DHT22;13733;51.178;4.450;2023-04-19T01:10:13;9.90;99.90
25937;DHT22;13733;51.178;4.450;2023-04-19T01:12:40;9.90;99.90
25937;DHT22;13733;51.178;4.450;2023-04-19T01:15:06;9.90;99.90
25937;DHT22;13733;51.178;4.450;2023-04-19T01:17:33;9.90;99.90
25937;DHT22;13733;51.178;4.450;2023-04-19T01:20:03;9.90;99.90
25937;DHT22;13733;51.178;4.450;2023-04-19T01:22:33;9.80;99.90
25937;DHT22;13733;51.178;4.450;2023-04-19T01:25:03;9.90;99.90
25937;DHT22;13733;51.178;4.450;2023-04-19T01:27:29;9.80;99.90
25937;DHT22;13733;51.178;4.450;2023-04-19T01:29:56;9.80;99.90
25937;DHT22;13733;51.178;4.450;2023-04-19T01:32:25;9.90;99.90
25937;DHT22;13733;51.178;4.450;2023-04-19T01:34:51;10.00;99.90
25937;DHT22;13733;51.178;4.450;2023-04-19T01:37:17;10.10;99.90
25937;DHT22;13733;51.178;4.450;2023-04-19T01:39:43;10.10;99.90
25937;DHT22;13733;51.178;4.450;2023-04-19T01:42:09;10.10;99.90
25937;DHT22;13733;51.178;4.450;2023-04-19T01:44:35;10.20;99.90
25937;DHT22;13733;51.178;4.450;2023-04-19T01:47:01;10.30;99.90
25937;DHT22;13733;51.178;4.450;2023-04-19T01:49:27;10.40;99.90
25937;DHT22;13733;51.178;4.450;2023-04-19T01:51:52;10.50;99.90
25937;DHT22;13733;51.178;4.450;2023-04-19T01:54:19;10.60;99.90
25937;DHT22;13733;51.178;4.450;2023-04-19T01:56:48;10.60;99.90
25937;DHT22;13733;51.178;4.450;2023-04-19T01:59:14;10.60;99.90
25937;DHT22;13733;51.178;4.450;2023-04-19T02:01:39;10.60;99.90
25937;DHT22;13733;51.178;4.450;2023-04-19T02:04:06;10.60;99.90
25937;DHT22;13733;51.178;4.450;2023-04-19T02:06:32;10.70;99.90
25937;DHT22;13733;51.178;4.450;2023-04-19T02:08:58;10.70;99.90
25937;DHT22;13733;51.178;4.450;2023-04-19T02:11:23;10.80;99.90
25937;DHT22;13733;51.178;4.450;2023-04-19T02:13:49;10.70;99.90
25937;DHT22;13733;51.178;4.450;2023-04-19T02:16:15;10.80;99.90
25937;DHT22;13733;51.178;4.450;2023-04-19T02:18:41;10.80;99.90
25937;DHT22;13733;51.178;4.450;2023-04-19T02:21:09;10.90;99.90
25937;DHT22;13733;51.178;4.450;2023-04-19T02:23:35;11.00;99.90
25937;DHT22;13733;51.178;4.450;2023-04-19T02:26:01;11.10;99.90
25937;DHT22;13733;51.178;4.450;2023-04-19T02:28:29;11.10;99.90
25937;DHT22;13733;51.178;4.450;2023-04-19T02:30:54;11.10;99.90
25937;DHT22;13733;51.178;4.450;2023-04-19T02:33:21;11.10;99.90
25937;DHT22;13733;51.178;4.450;2023-04-19T02:35:47;11.10;99.90
25937;DHT22;13733;51.178;4.450;2023-04-19T02:38:12;11.20;99.90
25937;DHT22;13733;51.178;4.450;2023-04-19T02:40:38;11.20;99.90
25937;DHT22;13733;51.178;4.450;2023-04-19T02:43:04;11.20;99.90
25937;DHT22;13733;51.178;4.450;2023-04-19T02:45:30;11.30;99.90
25937;DHT22;13733;51.178;4.450;2023-04-19T02:47:55;11.30;99.90
25937;DHT22;13733;51.178;4.450;2023-04-19T02:50:22;11.30;99.90
25937;DHT22;13733;51.178;4.450;2023-04-19T02:52:49;11.40;99.90
25937;DHT22;13733;51.178;4.450;2023-04-19T02:55:16;11.40;99.90
25937;DHT22;13733;51.178;4.450;2023-04-19T02:57:43;11.40;99.90
25937;DHT22;13733;51.178;4.450;2023-04-19T03:00:10;11.40;99.90
25937;DHT22;13733;51.178;4.450;2023-04-19T03:02:40;11.40;99.90
25937;DHT22;13733;51.178;4.450;2023-04-19T03:05:09;11.50;99.90
25937;DHT22;13733;51.178;4.450;2023-04-19T03:07:35;11.50;99.90
25937;DHT22;13733;51.178;4.450;2023-04-19T03:10:01;11.40;99.90
25937;DHT22;13733;51.178;4.450;2023-04-19T03:12:27;11.30;99.90
25937;DHT22;13733;51.178;4.450;2023-04-19T03:14:53;11.30;99.90
25937;DHT22;13733;51.178;4.450;2023-04-19T03:17:19;11.40;99.90
25937;DHT22;13733;51.178;4.450;2023-04-19T03:19:46;11.40;99.90
25937;DHT22;13733;51.178;4.450;2023-04-19T03:22:12;11.40;99.90
25937;DHT22;13733;51.178;4.450;2023-04-19T03:24:39;11.30;99.90
25937;DHT22;13733;51.178;4.450;2023-04-19T03:27:16;11.40;99.90
25937;DHT22;13733;51.178;4.450;2023-04-19T03:29:45;11.30;99.90
25937;DHT22;13733;51.178;4.450;2023-04-19T03:32:11;11.30;99.90
25937;DHT22;13733;51.178;4.450;2023-04-19T03:34:37;11.30;99.90
25937;DHT22;13733;51.178;4.450;2023-04-19T03:37:03;11.30;99.90
25937;DHT22;13733;51.178;4.450;2023-04-19T03:39:31;11.30;99.90
25937;DHT22;13733;51.178;4.450;2023-04-19T03:42:01;11.30;99.90
25937;DHT22;13733;51.178;4.450;2023-04-19T03:44:59;11.40;99.90
25937;DHT22;13733;51.178;4.450;2023-04-19T03:47:27;11.50;99.90
25937;DHT22;13733;51.178;4.450;2023-04-19T03:49:56;11.50;99.90
25937;DHT22;13733;51.178;4.450;2023-04-19T03:52:22;11.50;99.90
25937;DHT22;13733;51.178;4.450;2023-04-19T03:54:50;11.50;99.90
25937;DHT22;13733;51.178;4.450;2023-04-19T03:57:30;11.50;99.90
25937;DHT22;13733;51.178;4.450;2023-04-19T03:59:59;11.40;99.90
25937;DHT22;13733;51.178;4.450;2023-04-19T04:02:25;11.50;99.90
25937;DHT22;13733;51.178;4.450;2023-04-19T04:04:54;11.60;99.90
25937;DHT22;13733;51.178;4.450;2023-04-19T04:07:21;11.50;99.90
25937;DHT22;13733;51.178;4.450;2023-04-19T04:09:48;11.60;99.90
25937;DHT22;13733;51.178;4.450;2023-04-19T04:12:14;11.50;99.90
25937;DHT22;13733;51.178;4.450;2023-04-19T04:14:41;11.50;99.90
25937;DHT22;13733;51.178;4.450;2023-04-19T04:17:08;11.50;99.90
25937;DHT22;13733;51.178;4.450;2023-04-19T04:19:34;11.50;99.90
25937;DHT22;13733;51.178;4.450;2023-04-19T04:22:00;11.50;99.90
25937;DHT22;13733;51.178;4.450;2023-04-19T04:24:27;11.40;99.90
25937;DHT22;13733;51.178;4.450;2023-04-19T04:27:07;11.30;99.90
25937;DHT22;13733;51.178;4.450;2023-04-19T04:29:37;11.10;99.90
25937;DHT22;13733;51.178;4.450;2023-04-19T04:32:06;10.90;99.90
25937;DHT22;13733;51.178;4.450;2023-04-19T04:34:38;10.80;99.90
25937;DHT22;13733;51.178;4.450;2023-04-19T04:37:10;10.70;99.90
25937;DHT22;13733;51.178;4.450;2023-04-19T04:39:37;10.70;99.90
25937;DHT22;13733;51.178;4.450;2023-04-19T04:42:05;10.60;99.90
25937;DHT22;13733;51.178;4.450;2023-04-19T04:44:34;10.50;99.90
25937;DHT22;13733;51.178;4.450;2023-04-19T04:47:00;10.40;99.90
25937;DHT22;13733;51.178;4.450;2023-04-19T04:49:29;10.40;99.90
25937;DHT22;13733;51.178;4.450;2023-04-19T04:51:57;10.40;99.90
25937;DHT22;13733;51.178;4.450;2023-04-19T04:54:23;10.30;99.90
25937;DHT22;13733;51.178;4.450;2023-04-19T04:56:50;10.30;99.90
25937;DHT22;13733;51.178;4.450;2023-04-19T04:59:16;10.30;99.90
25937;DHT22;13733;51.178;4.450;2023-04-19T05:01:44;10.40;99.90
25937;DHT22;13733;51.178;4.450;2023-04-19T05:04:11;10.30;99.90
25937;DHT22;13733;51.178;4.450;2023-04-19T05:06:36;10.50;99.90
25937;DHT22;13733;51.178;4.450;2023-04-19T05:09:06;10.40;99.90
25937;DHT22;13733;51.178;4.450;2023-04-19T05:11:34;10.30;99.90
25937;DHT22;13733;51.178;4.450;2023-04-19T05:14:01;10.30;99.90
25937;DHT22;13733;51.178;4.450;2023-04-19T05:16:27;10.30;99.90
25937;DHT22;13733;51.178;4.450;2023-04-19T05:18:54;10.30;99.90
25937;DHT22;13733;51.178;4.450;2023-04-19T05:21:21;10.30;99.90
25937;DHT22;13733;51.178;4.450;2023-04-19T05:23:46;10.30;99.90
25937;DHT22;13733;51.178;4.450;2023-04-19T05:26:14;10.40;99.90
25937;DHT22;13733;51.178;4.450;2023-04-19T05:28:42;10.40;99.90
25937;DHT22;13733;51.178;4.450;2023-04-19T05:31:14;10.40;99.90
25937;DHT22;13733;51.178;4.450;2023-04-19T05:34:00;10.50;99.90
25937;DHT22;13733;51.178;4.450;2023-04-19T05:36:26;10.60;99.90
25937;DHT22;13733;51.178;4.450;2023-04-19T05:38:53;10.70;99.90
25937;DHT22;13733;51.178;4.450;2023-04-19T05:41:20;10.80;99.90
25937;DHT22;13733;51.178;4.450;2023-04-19T05:43:46;10.90;99.90
25937;DHT22;13733;51.178;4.450;2023-04-19T05:46:12;10.90;99.90
25937;DHT22;13733;51.178;4.450;2023-04-19T05:48:38;11.00;99.90
25937;DHT22;13733;51.178;4.450;2023-04-19T05:51:30;11.20;99.90
25937;DHT22;13733;51.178;4.450;2023-04-19T05:54:12;11.20;99.90
25937;DHT22;13733;51.178;4.450;2023-04-19T05:56:41;11.40;99.90
25937;DHT22;13733;51.178;4.450;2023-04-19T05:59:07;11.40;99.90
25937;DHT22;13733;51.178;4.450;2023-04-19T06:01:33;11.60;99.90
25937;DHT22;13733;51.178;4.450;2023-04-19T06:04:00;11.60;99.90
25937;DHT22;13733;51.178;4.450;2023-04-19T06:06:25;11.70;99.90
25937;DHT22;13733;51.178;4.450;2023-04-19T06:08:52;11.70;99.90
25937;DHT22;13733;51.178;4.450;2023-04-19T06:11:17;11.80;99.90
25937;DHT22;13733;51.178;4.450;2023-04-19T06:13:43;12.00;99.90
25937;DHT22;13733;51.178;4.450;2023-04-19T06:16:09;12.10;99.90
25937;DHT22;13733;51.178;4.450;2023-04-19T06:18:36;12.10;99.90
25937;DHT22;13733;51.178;4.450;2023-04-19T06:21:02;12.10;99.90
25937;DHT22;13733;51.178;4.450;2023-04-19T06:23:28;12.10;99.90
25937;DHT22;13733;51.178;4.450;2023-04-19T06:25:53;12.20;99.90
25937;DHT22;13733;51.178;4.450;2023-04-19T06:28:19;12.30;99.90
25937;DHT22;13733;51.178;4.450;2023-04-19T06:30:45;12.50;99.90
25937;DHT22;13733;51.178;4.450;2023-04-19T06:33:10;12.60;99.90
25937;DHT22;13733;51.178;4.450;2023-04-19T06:35:36;12.60;99.90
25937;DHT22;13733;51.178;4.450;2023-04-19T06:38:03;12.70;99.90
25937;DHT22;13733;51.178;4.450;2023-04-19T06:40:29;12.60;99.90
25937;DHT22;13733;51.178;4.450;2023-04-19T06:42:56;12.70;99.90
25937;DHT22;13733;51.178;4.450;2023-04-19T06:45:21;12.70;99.90
25937;DHT22;13733;51.178;4.450;2023-04-19T06:47:47;12.80;99.90
25937;DHT22;13733;51.178;4.450;2023-04-19T06:50:13;12.80;99.90
25937;DHT22;13733;51.178;4.450;2023-04-19T06:52:39;12.90;99.90
25937;DHT22;13733;51.178;4.450;2023-04-19T06:55:08;13.00;99.90
25937;DHT22;13733;51.178;4.450;2023-04-19T06:57:34;13.10;99.90
25937;DHT22;13733;51.178;4.450;2023-04-19T07:00:00;13.00;99.90
25937;DHT22;13733;51.178;4.450;2023-04-19T07:02:26;12.90;99.90
25937;DHT22;13733;51.178;4.450;2023-04-19T07:04:51;12.80;99.90
25937;DHT22;13733;51.178;4.450;2023-04-19T07:07:17;12.80;99.90
25937;DHT22;13733;51.178;4.450;2023-04-19T07:09:43;12.80;99.90
25937;DHT22;13733;51.178;4.450;2023-04-19T07:12:08;12.90;99.90
25937;DHT22;13733;51.178;4.450;2023-04-19T07:14:35;12.90;99.90
25937;DHT22;13733;51.178;4.450;2023-04-19T07:17:02;12.90;99.90
25937;DHT22;13733;51.178;4.450;2023-04-19T07:19:28;12.90;99.90
25937;DHT22;13733;51.178;4.450;2023-04-19T07:21:54;12.90;99.90
25937;DHT22;13733;51.178;4.450;2023-04-19T07:24:19;12.80;99.90
25937;DHT22;13733;51.178;4.450;2023-04-19T07:26:45;12.80;99.90
25937;DHT22;13733;51.178;4.450;2023-04-19T07:29:11;12.90;99.90
25937;DHT22;13733;51.178;4.450;2023-04-19T07:31:36;13.00;99.90
25937;DHT22;13733;51.178;4.450;2023-04-19T07:34:02;13.20;99.90
25937;DHT22;13733;51.178;4.450;2023-04-19T07:36:28;13.20;99.90
25937;DHT22;13733;51.178;4.450;2023-04-19T07:38:54;13.20;99.90
25937;DHT22;13733;51.178;4.450;2023-04-19T07:41:19;13.30;99.90
25937;DHT22;13733;51.178;4.450;2023-04-19T07:43:45;13.30;99.90
25937;DHT22;13733;51.178;4.450;2023-04-19T07:46:12;13.40;99.90
25937;DHT22;13733;51.178;4.450;2023-04-19T07:48:40;13.40;99.90
25937;DHT22;13733;51.178;4.450;2023-04-19T07:53:34;13.50;99.90
25937;DHT22;13733;51.178;4.450;2023-04-19T07:56:00;13.70;99.90
25937;DHT22;13733;51.178;4.450;2023-04-19T07:58:26;13.60;99.90
25937;DHT22;13733;51.178;4.450;2023-04-19T08:00:51;13.60;99.90
25937;DHT22;13733;51.178;4.450;2023-04-19T08:03:17;13.50;99.90
25937;DHT22;13733;51.178;4.450;2023-04-19T08:05:43;13.60;99.90
25937;DHT22;13733;51.178;4.450;2023-04-19T08:08:08;13.60;99.90
25937;DHT22;13733;51.178;4.450;2023-04-19T08:10:34;13.60;99.90
25937;DHT22;13733;51.178;4.450;2023-04-19T08:13:00;13.70;99.90
25937;DHT22;13733;51.178;4.450;2023-04-19T08:15:26;13.80;99.90
25937;DHT22;13733;51.178;4.450;2023-04-19T08:17:52;13.80;99.90
25937;DHT22;13733;51.178;4.450;2023-04-19T08:20:17;13.90;99.90
25937;DHT22;13733;51.178;4.450;2023-04-19T08:22:43;14.00;99.90
25937;DHT22;13733;51.178;4.450;2023-04-19T08:25:10;14.10;99.90
25937;DHT22;13733;51.178;4.450;2023-04-19T08:27:35;14.20;99.90
25937;DHT22;13733;51.178;4.450;2023-04-19T08:30:02;14.40;99.90
25937;DHT22;13733;51.178;4.450;2023-04-19T08:32:28;14.40;99.90
25937;DHT22;13733;51.178;4.450;2023-04-19T08:34:53;14.60;99.90
25937;DHT22;13733;51.178;4.450;2023-04-19T08:37:20;14.70;99.90
25937;DHT22;13733;51.178;4.450;2023-04-19T08:39:45;14.80;99.90
25937;DHT22;13733;51.178;4.450;2023-04-19T08:42:11;14.80;99.90
25937;DHT22;13733;51.178;4.450;2023-04-19T08:44:37;15.00;99.90
25937;DHT22;13733;51.178;4.450;2023-04-19T08:47:04;15.00;99.90
25937;DHT22;13733;51.178;4.450;2023-04-19T08:49:34;14.90;99.90
25937;DHT22;13733;51.178;4.450;2023-04-19T08:52:02;14.80;99.90
25937;DHT22;13733;51.178;4.450;2023-04-19T08:54:29;14.90;99.90
25937;DHT22;13733;51.178;4.450;2023-04-19T08:56:58;14.80;99.90
25937;DHT22;13733;51.178;4.450;2023-04-19T08:59:25;15.00;99.90
25937;DHT22;13733;51.178;4.450;2023-04-19T09:01:51;15.10;99.90
25937;DHT22;13733;51.178;4.450;2023-04-19T09:04:16;15.10;99.90
25937;DHT22;13733;51.178;4.450;2023-04-19T09:06:42;15.20;99.90
25937;DHT22;13733;51.178;4.450;2023-04-19T09:09:15;15.20;99.90
25937;DHT22;13733;51.178;4.450;2023-04-19T09:11:41;15.20;99.90
25937;DHT22;13733;51.178;4.450;2023-04-19T09:14:11;15.30;99.90
25937;DHT22;13733;51.178;4.450;2023-04-19T09:16:37;15.40;99.90
25937;DHT22;13733;51.178;4.450;2023-04-19T09:19:04;15.40;99.90
25937;DHT22;13733;51.178;4.450;2023-04-19T09:21:31;15.40;99.90
25937;DHT22;13733;51.178;4.450;2023-04-19T09:23:57;15.50;99.90
25937;DHT22;13733;51.178;4.450;2023-04-19T09:26:25;15.60;99.90
25937;DHT22;13733;51.178;4.450;2023-04-19T09:29:03;15.70;99.90
25937;DHT22;13733;51.178;4.450;2023-04-19T09:31:34;15.80;99.90
25937;DHT22;13733;51.178;4.450;2023-04-19T09:34:21;15.90;99.90
25937;DHT22;13733;51.178;4.450;2023-04-19T09:36:48;15.90;99.90
25937;DHT22;13733;51.178;4.450;2023-04-19T09:39:27;16.00;99.90
25937;DHT22;13733;51.178;4.450;2023-04-19T09:41:53;16.00;99.90
25937;DHT22;13733;51.178;4.450;2023-04-19T09:44:19;16.10;99.90
25937;DHT22;13733;51.178;4.450;2023-04-19T09:46:45;16.20;99.90
25937;DHT22;13733;51.178;4.450;2023-04-19T09:51:53;16.30;99.90
25937;DHT22;13733;51.178;4.450;2023-04-19T09:54:20;16.40;99.90
25937;DHT22;13733;51.178;4.450;2023-04-19T09:56:47;16.60;99.90
25937;DHT22;13733;51.178;4.450;2023-04-19T09:59:13;16.70;99.90
25937;DHT22;13733;51.178;4.450;2023-04-19T10:04:13;16.90;99.90
25937;DHT22;13733;51.178;4.450;2023-04-19T10:06:39;17.00;99.90
25937;DHT22;13733;51.178;4.450;2023-04-19T10:09:06;17.10;99.90
25937;DHT22;13733;51.178;4.450;2023-04-19T10:11:37;17.10;99.90
25937;DHT22;13733;51.178;4.450;2023-04-19T10:14:07;17.10;99.90
25937;DHT22;13733;51.178;4.450;2023-04-19T10:16:34;17.30;99.90
25937;DHT22;13733;51.178;4.450;2023-04-19T10:19:09;17.40;99.90
25937;DHT22;13733;51.178;4.450;2023-04-19T10:21:35;17.50;99.90
25937;DHT22;13733;51.178;4.450;2023-04-19T10:24:02;17.40;99.90
25937;DHT22;13733;51.178;4.450;2023-04-19T10:26:29;17.30;99.90
25937;DHT22;13733;51.178;4.450;2023-04-19T10:28:55;17.30;99.90
25937;DHT22;13733;51.178;4.450;2023-04-19T10:31:25;17.40;99.90
25937;DHT22;13733;51.178;4.450;2023-04-19T10:33:51;17.60;99.90
25937;DHT22;13733;51.178;4.450;2023-04-19T10:36:17;17.80;99.90
25937;DHT22;13733;51.178;4.450;2023-04-19T10:38:47;17.90;99.90
25937;DHT22;13733;51.178;4.450;2023-04-19T10:41:15;18.00;99.90
25937;DHT22;13733;51.178;4.450;2023-04-19T10:46:34;18.80;98.40
25937;DHT22;13733;51.178;4.450;2023-04-19T10:49:02;18.90;97.30
25937;DHT22;13733;51.178;4.450;2023-04-19T10:51:31;19.10;95.90
25937;DHT22;13733;51.178;4.450;2023-04-19T10:53:59;18.90;96.10
25937;DHT22;13733;51.178;4.450;2023-04-19T11:01:45;20.50;91.40
25937;DHT22;13733;51.178;4.450;2023-04-19T11:07:05;20.80;86.90
25937;DHT22;13733;51.178;4.450;2023-04-19T11:09:39;21.10;81.80
25937;DHT22;13733;51.178;4.450;2023-04-19T11:12:17;20.90;77.90
25937;DHT22;13733;51.178;4.450;2023-04-19T11:14:44;21.00;75.60
25937;DHT22;13733;51.178;4.450;2023-04-19T11:17:30;21.60;76.10
25937;DHT22;13733;51.178;4.450;2023-04-19T11:20:07;22.70;70.80
25937;DHT22;13733;51.178;4.450;2023-04-19T11:22:54;23.30;63.40
25937;DHT22;13733;51.178;4.450;2023-04-19T11:25:24;23.80;59.70
25937;DHT22;13733;51.178;4.450;2023-04-19T11:27:52;24.20;56.20
25937;DHT22;13733;51.178;4.450;2023-04-19T11:30:19;24.10;54.60
25937;DHT22;13733;51.178;4.450;2023-04-19T11:32:54;24.10;50.80
25937;DHT22;13733;51.178;4.450;2023-04-19T11:35:26;23.90;48.20
25937;DHT22;13733;51.178;4.450;2023-04-19T11:37:53;24.20;48.00
25937;DHT22;13733;51.178;4.450;2023-04-19T11:40:22;24.00;46.80
25937;DHT22;13733;51.178;4.450;2023-04-19T11:42:59;24.50;47.40
25937;DHT22;13733;51.178;4.450;2023-04-19T11:45:27;24.20;43.80
25937;DHT22;13733;51.178;4.450;2023-04-19T11:47:54;23.70;44.80
25937;DHT22;13733;51.178;4.450;2023-04-19T11:50:41;24.00;44.80
25937;DHT22;13733;51.178;4.450;2023-04-19T11:53:11;23.80;41.60
25937;DHT22;13733;51.178;4.450;2023-04-19T11:55:37;22.70;42.50
25937;DHT22;13733;51.178;4.450;2023-04-19T11:58:05;22.80;44.70
25937;DHT22;13733;51.178;4.450;2023-04-19T12:00:34;23.10;41.20
25937;DHT22;13733;51.178;4.450;2023-04-19T12:03:00;23.20;41.10
25937;DHT22;13733;51.178;4.450;2023-04-19T12:05:26;23.30;40.50
25937;DHT22;13733;51.178;4.450;2023-04-19T12:08:03;23.50;39.60
25937;DHT22;13733;51.178;4.450;2023-04-19T12:10:30;24.00;39.50
25937;DHT22;13733;51.178;4.450;2023-04-19T12:12:56;24.20;37.20
25937;DHT22;13733;51.178;4.450;2023-04-19T12:15:22;24.60;37.00
25937;DHT22;13733;51.178;4.450;2023-04-19T12:18:01;25.30;36.10
25937;DHT22;13733;51.178;4.450;2023-04-19T12:20:37;25.50;34.80
25937;DHT22;13733;51.178;4.450;2023-04-19T12:23:03;25.50;33.60
25937;DHT22;13733;51.178;4.450;2023-04-19T12:25:29;25.90;34.00
25937;DHT22;13733;51.178;4.450;2023-04-19T12:27:56;26.10;33.70
25937;DHT22;13733;51.178;4.450;2023-04-19T12:30:22;26.10;30.50
25937;DHT22;13733;51.178;4.450;2023-04-19T12:32:48;26.30;29.90
25937;DHT22;13733;51.178;4.450;2023-04-19T12:35:16;26.40;29.20
25937;DHT22;13733;51.178;4.450;2023-04-19T12:37:42;26.70;28.70
25937;DHT22;13733;51.178;4.450;2023-04-19T12:40:08;26.50;28.00
25937;DHT22;13733;51.178;4.450;2023-04-19T12:42:34;26.10;27.60
25937;DHT22;13733;51.178;4.450;2023-04-19T12:45:00;25.80;28.30
25937;DHT22;13733;51.178;4.450;2023-04-19T12:47:26;26.30;29.00
25937;DHT22;13733;51.178;4.450;2023-04-19T12:49:52;26.90;27.70
25937;DHT22;13733;51.178;4.450;2023-04-19T12:52:18;27.30;26.80
25937;DHT22;13733;51.178;4.450;2023-04-19T12:54:44;27.90;26.20
25937;DHT22;13733;51.178;4.450;2023-04-19T12:57:09;28.10;25.50
25937;DHT22;13733;51.178;4.450;2023-04-19T12:59:36;27.80;25.60
25937;DHT22;13733;51.178;4.450;2023-04-19T13:02:01;27.30;26.30
25937;DHT22;13733;51.178;4.450;2023-04-19T13:04:27;27.00;26.30
25937;DHT22;13733;51.178;4.450;2023-04-19T13:06:53;27.00;26.00
25937;DHT22;13733;51.178;4.450;2023-04-19T13:09:19;27.30;26.50
25937;DHT22;13733;51.178;4.450;2023-04-19T13:11:45;27.20;25.70
25937;DHT22;13733;51.178;4.450;2023-04-19T13:14:11;27.20;25.00
25937;DHT22;13733;51.178;4.450;2023-04-19T13:16:37;27.30;25.50
25937;DHT22;13733;51.178;4.450;2023-04-19T13:19:04;27.80;25.10
25937;DHT22;13733;51.178;4.450;2023-04-19T13:21:30;28.20;24.20
25937;DHT22;13733;51.178;4.450;2023-04-19T13:23:59;28.60;23.70
25937;DHT22;13733;51.178;4.450;2023-04-19T13:26:25;28.70;23.90
25937;DHT22;13733;51.178;4.450;2023-04-19T13:28:51;28.50;24.50
25937;DHT22;13733;51.178;4.450;2023-04-19T13:31:17;29.10;23.90
25937;DHT22;13733;51.178;4.450;2023-04-19T13:33:43;29.80;24.20
25937;DHT22;13733;51.178;4.450;2023-04-19T13:36:08;30.20;23.90
25937;DHT22;13733;51.178;4.450;2023-04-19T13:38:34;30.20;21.70
25937;DHT22;13733;51.178;4.450;2023-04-19T13:41:01;29.90;22.30
25937;DHT22;13733;51.178;4.450;2023-04-19T13:43:28;29.50;22.70
25937;DHT22;13733;51.178;4.450;2023-04-19T13:45:53;29.30;22.40
25937;DHT22;13733;51.178;4.450;2023-04-19T13:48:19;28.70;22.50
25937;DHT22;13733;51.178;4.450;2023-04-19T13:51:11;28.90;22.60
25937;DHT22;13733;51.178;4.450;2023-04-19T13:53:37;28.20;22.20
25937;DHT22;13733;51.178;4.450;2023-04-19T13:56:05;28.40;22.20
25937;DHT22;13733;51.178;4.450;2023-04-19T13:58:34;28.50;22.00
25937;DHT22;13733;51.178;4.450;2023-04-19T14:01:00;28.70;22.60
25937;DHT22;13733;51.178;4.450;2023-04-19T14:03:26;28.30;22.90
25937;DHT22;13733;51.178;4.450;2023-04-19T14:05:52;28.90;22.90
25937;DHT22;13733;51.178;4.450;2023-04-19T14:08:18;28.90;22.60
25937;DHT22;13733;51.178;4.450;2023-04-19T14:10:45;29.30;22.40
25937;DHT22;13733;51.178;4.450;2023-04-19T14:13:11;29.40;21.50
25937;DHT22;13733;51.178;4.450;2023-04-19T14:15:37;30.00;21.50
25937;DHT22;13733;51.178;4.450;2023-04-19T14:18:03;30.30;22.30
25937;DHT22;13733;51.178;4.450;2023-04-19T14:20:28;29.90;21.60
25937;DHT22;13733;51.178;4.450;2023-04-19T14:22:54;29.10;22.70
25937;DHT22;13733;51.178;4.450;2023-04-19T14:25:23;29.10;22.80
25937;DHT22;13733;51.178;4.450;2023-04-19T14:27:49;29.80;23.10
25937;DHT22;13733;51.178;4.450;2023-04-19T14:30:15;29.70;22.30
25937;DHT22;13733;51.178;4.450;2023-04-19T14:32:40;29.60;21.30
25937;DHT22;13733;51.178;4.450;2023-04-19T14:35:07;29.70;20.80
25937;DHT22;13733;51.178;4.450;2023-04-19T14:37:33;29.50;20.30
25937;DHT22;13733;51.178;4.450;2023-04-19T14:39:59;29.70;19.70
25937;DHT22;13733;51.178;4.450;2023-04-19T14:42:25;30.10;20.20
25937;DHT22;13733;51.178;4.450;2023-04-19T14:44:51;31.40;19.40
25937;DHT22;13733;51.178;4.450;2023-04-19T14:47:17;31.80;20.20
25937;DHT22;13733;51.178;4.450;2023-04-19T14:49:42;31.70;19.80
25937;DHT22;13733;51.178;4.450;2023-04-19T14:52:08;31.70;20.40
25937;DHT22;13733;51.178;4.450;2023-04-19T14:54:34;30.60;19.00
25937;DHT22;13733;51.178;4.450;2023-04-19T14:56:59;29.50;19.70
25937;DHT22;13733;51.178;4.450;2023-04-19T14:59:26;29.30;19.90
25937;DHT22;13733;51.178;4.450;2023-04-19T15:01:51;29.20;20.00
25937;DHT22;13733;51.178;4.450;2023-04-19T15:04:17;30.00;20.50
25937;DHT22;13733;51.178;4.450;2023-04-19T15:06:43;31.00;20.00
25937;DHT22;13733;51.178;4.450;2023-04-19T15:09:09;29.20;19.30
25937;DHT22;13733;51.178;4.450;2023-04-19T15:11:35;28.00;20.00
25937;DHT22;13733;51.178;4.450;2023-04-19T15:14:01;27.90;20.10
25937;DHT22;13733;51.178;4.450;2023-04-19T15:16:27;28.50;20.40
25937;DHT22;13733;51.178;4.450;2023-04-19T15:18:52;29.20;20.40
25937;DHT22;13733;51.178;4.450;2023-04-19T15:21:19;29.60;19.10
25937;DHT22;13733;51.178;4.450;2023-04-19T15:23:45;29.00;19.50
25937;DHT22;13733;51.178;4.450;2023-04-19T15:26:11;29.70;19.20
25937;DHT22;13733;51.178;4.450;2023-04-19T15:28:37;29.90;19.10
25937;DHT22;13733;51.178;4.450;2023-04-19T15:31:05;30.80;19.60
25937;DHT22;13733;51.178;4.450;2023-04-19T15:33:31;31.50;19.10
25937;DHT22;13733;51.178;4.450;2023-04-19T15:35:57;31.70;18.40
25937;DHT22;13733;51.178;4.450;2023-04-19T15:38:25;30.80;18.40
25937;DHT22;13733;51.178;4.450;2023-04-19T15:40:53;30.60;18.50
25937;DHT22;13733;51.178;4.450;2023-04-19T15:43:19;29.90;18.60
25937;DHT22;13733;51.178;4.450;2023-04-19T15:45:45;29.30;19.30
25937;DHT22;13733;51.178;4.450;2023-04-19T15:48:11;29.00;19.70
25937;DHT22;13733;51.178;4.450;2023-04-19T15:50:38;29.30;19.80
25937;DHT22;13733;51.178;4.450;2023-04-19T15:53:05;30.20;19.50